sensor_id;sensor_type;location;lat;lon;timestamp;temperature;humidity
22491;DHT22;11412;50.802;4.350;2023-02-04T00:01:28;10.10;99.90
22491;DHT22;11412;50.802;4.350;2023-02-04T00:03:54;10.10;99.90
22491;DHT22;11412;50.802;4.350;2023-02-04T00:06:20;10.10;99.90
22491;DHT22;11412;50.802;4.350;2023-02-04T00:08:45;10.10;99.90
22491;DHT22;11412;50.802;4.350;2023-02-04T00:11:11;10.10;99.90
22491;DHT22;11412;50.802;4.350;2023-02-04T00:13:36;10.10;99.90
22491;DHT22;11412;50.802;4.350;2023-02-04T00:16:02;10.10;99.90
22491;DHT22;11412;50.802;4.350;2023-02-04T00:18:28;10.10;99.90
22491;DHT22;11412;50.802;4.350;2023-02-04T00:20:54;10.00;99.90
22491;DHT22;11412;50.802;4.350;2023-02-04T00:23:19;10.00;99.90
22491;DHT22;11412;50.802;4.350;2023-02-04T00:25:45;10.10;99.90
22491;DHT22;11412;50.802;4.350;2023-02-04T00:28:11;10.10;99.90
22491;DHT22;11412;50.802;4.350;2023-02-04T00:30:36;10.10;99.90
22491;DHT22;11412;50.802;4.350;2023-02-04T00:33:02;10.00;99.90
22491;DHT22;11412;50.802;4.350;2023-02-04T00:35:28;10.00;99.90
22491;DHT22;11412;50.802;4.350;2023-02-04T00:37:54;10.00;99.90
22491;DHT22;11412;50.802;4.350;2023-02-04T00:40:19;10.10;99.90
22491;DHT22;11412;50.802;4.350;2023-02-04T00:42:45;10.10;99.90
22491;DHT22;11412;50.802;4.350;2023-02-04T00:45:11;10.10;99.90
22491;DHT22;11412;50.802;4.350;2023-02-04T00:47:37;10.10;99.90
22491;DHT22;11412;50.802;4.350;2023-02-04T00:50:03;10.10;99.90
22491;DHT22;11412;50.802;4.350;2023-02-04T00:52:29;10.10;99.90
22491;DHT22;11412;50.802;4.350;2023-02-04T00:54:55;10.10;99.90
22491;DHT22;11412;50.802;4.350;2023-02-04T00:57:20;10.10;99.90
22491;DHT22;11412;50.802;4.350;2023-02-04T00:59:46;10.10;99.90
22491;DHT22;11412;50.802;4.350;2023-02-04T01:02:12;10.10;99.90
22491;DHT22;11412;50.802;4.350;2023-02-04T01:04:38;10.10;99.90
22491;DHT22;11412;50.802;4.350;2023-02-04T01:07:04;10.20;99.90
22491;DHT22;11412;50.802;4.350;2023-02-04T01:09:29;10.10;99.90
22491;DHT22;11412;50.802;4.350;2023-02-04T01:11:55;10.10;99.90
22491;DHT22;11412;50.802;4.350;2023-02-04T01:14:21;10.10;99.90
22491;DHT22;11412;50.802;4.350;2023-02-04T01:16:46;10.10;99.90
22491;DHT22;11412;50.802;4.350;2023-02-04T01:19:12;10.00;99.90
22491;DHT22;11412;50.802;4.350;2023-02-04T01:21:38;10.00;99.90
22491;DHT22;11412;50.802;4.350;2023-02-04T01:24:04;10.00;99.90
22491;DHT22;11412;50.802;4.350;2023-02-04T01:26:29;10.00;99.90
22491;DHT22;11412;50.802;4.350;2023-02-04T01:28:55;10.00;99.90
22491;DHT22;11412;50.802;4.350;2023-02-04T01:31:22;10.10;99.90
22491;DHT22;11412;50.802;4.350;2023-02-04T01:33:47;10.00;99.90
22491;DHT22;11412;50.802;4.350;2023-02-04T01:36:13;10.00;99.90
22491;DHT22;11412;50.802;4.350;2023-02-04T01:38:39;10.10;99.90
22491;DHT22;11412;50.802;4.350;2023-02-04T01:41:05;10.10;99.90
22491;DHT22;11412;50.802;4.350;2023-02-04T01:43:31;10.10;99.90
22491;DHT22;11412;50.802;4.350;2023-02-04T01:45:58;10.00;99.90
22491;DHT22;11412;50.802;4.350;2023-02-04T01:48:24;10.10;99.90
22491;DHT22;11412;50.802;4.350;2023-02-04T01:50:51;10.10;99.90
22491;DHT22;11412;50.802;4.350;2023-02-04T01:53:21;10.10;99.90
22491;DHT22;11412;50.802;4.350;2023-02-04T01:55:49;10.10;99.90
22491;DHT22;11412;50.802;4.350;2023-02-04T01:58:15;10.10;99.90
22491;DHT22;11412;50.802;4.350;2023-02-04T02:00:41;10.10;99.90
22491;DHT22;11412;50.802;4.350;2023-02-04T02:03:08;10.00;99.90
22491;DHT22;11412;50.802;4.350;2023-02-04T02:05:47;10.00;99.90
22491;DHT22;11412;50.802;4.350;2023-02-04T02:08:14;10.00;99.90
22491;DHT22;11412;50.802;4.350;2023-02-04T02:10:42;10.00;99.90
22491;DHT22;11412;50.802;4.350;2023-02-04T02:13:11;10.00;99.90
22491;DHT22;11412;50.802;4.350;2023-02-04T02:15:38;10.10;99.90
22491;DHT22;11412;50.802;4.350;2023-02-04T02:18:04;10.10;99.90
22491;DHT22;11412;50.802;4.350;2023-02-04T02:20:30;10.10;99.90
22491;DHT22;11412;50.802;4.350;2023-02-04T02:25:58;10.10;99.90
22491;DHT22;11412;50.802;4.350;2023-02-04T02:28:24;10.10;99.90
22491;DHT22;11412;50.802;4.350;2023-02-04T02:30:50;10.10;99.90
22491;DHT22;11412;50.802;4.350;2023-02-04T02:33:17;10.10;99.90
22491;DHT22;11412;50.802;4.350;2023-02-04T02:35:45;10.10;99.90
22491;DHT22;11412;50.802;4.350;2023-02-04T02:38:13;10.10;99.90
22491;DHT22;11412;50.802;4.350;2023-02-04T02:40:40;10.10;99.90
22491;DHT22;11412;50.802;4.350;2023-02-04T02:43:09;10.20;99.90
22491;DHT22;11412;50.802;4.350;2023-02-04T02:45:38;10.20;99.90
22491;DHT22;11412;50.802;4.350;2023-02-04T02:48:04;10.20;99.90
22491;DHT22;11412;50.802;4.350;2023-02-04T02:50:31;10.20;99.90
22491;DHT22;11412;50.802;4.350;2023-02-04T02:52:58;10.20;99.90
22491;DHT22;11412;50.802;4.350;2023-02-04T02:55:26;10.20;99.90
22491;DHT22;11412;50.802;4.350;2023-02-04T02:57:52;10.20;99.90
22491;DHT22;11412;50.802;4.350;2023-02-04T03:00:24;10.20;99.90
22491;DHT22;11412;50.802;4.350;2023-02-04T03:03:10;10.20;99.90
22491;DHT22;11412;50.802;4.350;2023-02-04T03:05:40;10.20;99.90
22491;DHT22;11412;50.802;4.350;2023-02-04T03:08:06;10.10;99.90
22491;DHT22;11412;50.802;4.350;2023-02-04T03:10:33;10.10;99.90
22491;DHT22;11412;50.802;4.350;2023-02-04T03:12:58;10.10;99.90
22491;DHT22;11412;50.802;4.350;2023-02-04T03:15:25;10.10;99.90
22491;DHT22;11412;50.802;4.350;2023-02-04T03:17:51;10.10;99.90
22491;DHT22;11412;50.802;4.350;2023-02-04T03:20:22;10.10;99.90
22491;DHT22;11412;50.802;4.350;2023-02-04T03:22:50;10.10;99.90
22491;DHT22;11412;50.802;4.350;2023-02-04T03:25:16;10.10;99.90
22491;DHT22;11412;50.802;4.350;2023-02-04T03:27:41;10.10;99.90
22491;DHT22;11412;50.802;4.350;2023-02-04T03:30:08;10.10;99.90
22491;DHT22;11412;50.802;4.350;2023-02-04T03:32:34;10.10;99.90
22491;DHT22;11412;50.802;4.350;2023-02-04T03:34:59;10.20;99.90
22491;DHT22;11412;50.802;4.350;2023-02-04T03:37:25;10.10;99.90
22491;DHT22;11412;50.802;4.350;2023-02-04T03:39:51;10.10;99.90
22491;DHT22;11412;50.802;4.350;2023-02-04T03:42:16;10.10;99.90
22491;DHT22;11412;50.802;4.350;2023-02-04T03:44:42;10.10;99.90
22491;DHT22;11412;50.802;4.350;2023-02-04T03:47:08;10.10;99.90
22491;DHT22;11412;50.802;4.350;2023-02-04T03:49:34;10.10;99.90
22491;DHT22;11412;50.802;4.350;2023-02-04T03:52:01;10.10;99.90
22491;DHT22;11412;50.802;4.350;2023-02-04T03:54:27;10.10;99.90
22491;DHT22;11412;50.802;4.350;2023-02-04T03:56:52;10.10;99.90
22491;DHT22;11412;50.802;4.350;2023-02-04T03:59:18;10.10;99.90
22491;DHT22;11412;50.802;4.350;2023-02-04T04:01:44;10.10;99.90
22491;DHT22;11412;50.802;4.350;2023-02-04T04:04:09;10.10;99.90
22491;DHT22;11412;50.802;4.350;2023-02-04T04:06:35;10.10;99.90
22491;DHT22;11412;50.802;4.350;2023-02-04T04:09:00;10.10;99.90
22491;DHT22;11412;50.802;4.350;2023-02-04T04:11:26;10.10;99.90
22491;DHT22;11412;50.802;4.350;2023-02-04T04:13:52;10.10;99.90
22491;DHT22;11412;50.802;4.350;2023-02-04T04:16:17;10.10;99.90
22491;DHT22;11412;50.802;4.350;2023-02-04T04:18:45;10.10;99.90
22491;DHT22;11412;50.802;4.350;2023-02-04T04:21:10;10.10;99.90
22491;DHT22;11412;50.802;4.350;2023-02-04T04:23:36;10.10;99.90
22491;DHT22;11412;50.802;4.350;2023-02-04T04:26:02;10.10;99.90
22491;DHT22;11412;50.802;4.350;2023-02-04T04:28:28;10.10;99.90
22491;DHT22;11412;50.802;4.350;2023-02-04T04:30:54;10.10;99.90
22491;DHT22;11412;50.802;4.350;2023-02-04T04:33:19;10.10;99.90
22491;DHT22;11412;50.802;4.350;2023-02-04T04:35:45;10.20;99.90
22491;DHT22;11412;50.802;4.350;2023-02-04T04:38:11;10.10;99.90
22491;DHT22;11412;50.802;4.350;2023-02-04T04:40:36;10.10;99.90
22491;DHT22;11412;50.802;4.350;2023-02-04T04:43:02;10.10;99.90
22491;DHT22;11412;50.802;4.350;2023-02-04T04:45:28;10.10;99.90
22491;DHT22;11412;50.802;4.350;2023-02-04T04:47:53;10.20;99.90
22491;DHT22;11412;50.802;4.350;2023-02-04T04:50:19;10.10;99.90
22491;DHT22;11412;50.802;4.350;2023-02-04T04:52:45;10.10;99.90
22491;DHT22;11412;50.802;4.350;2023-02-04T04:55:10;10.10;99.90
22491;DHT22;11412;50.802;4.350;2023-02-04T04:57:36;10.10;99.90
22491;DHT22;11412;50.802;4.350;2023-02-04T05:00:03;10.10;99.90
22491;DHT22;11412;50.802;4.350;2023-02-04T05:02:29;10.10;99.90
22491;DHT22;11412;50.802;4.350;2023-02-04T05:04:55;10.00;99.90
22491;DHT22;11412;50.802;4.350;2023-02-04T05:07:20;10.00;99.90
22491;DHT22;11412;50.802;4.350;2023-02-04T05:09:46;10.00;99.90
22491;DHT22;11412;50.802;4.350;2023-02-04T05:12:11;10.00;99.90
22491;DHT22;11412;50.802;4.350;2023-02-04T05:14:37;10.00;99.90
22491;DHT22;11412;50.802;4.350;2023-02-04T05:17:03;10.00;99.90
22491;DHT22;11412;50.802;4.350;2023-02-04T05:19:28;10.00;99.90
22491;DHT22;11412;50.802;4.350;2023-02-04T05:21:54;10.00;99.90
22491;DHT22;11412;50.802;4.350;2023-02-04T05:24:20;10.00;99.90
22491;DHT22;11412;50.802;4.350;2023-02-04T05:26:45;10.00;99.90
22491;DHT22;11412;50.802;4.350;2023-02-04T05:29:11;10.00;99.90
22491;DHT22;11412;50.802;4.350;2023-02-04T05:31:36;10.00;99.90
22491;DHT22;11412;50.802;4.350;2023-02-04T05:34:02;10.00;99.90
22491;DHT22;11412;50.802;4.350;2023-02-04T05:36:28;9.90;99.90
22491;DHT22;11412;50.802;4.350;2023-02-04T05:38:53;10.00;99.90
22491;DHT22;11412;50.802;4.350;2023-02-04T05:41:19;10.00;99.90
22491;DHT22;11412;50.802;4.350;2023-02-04T05:43:44;9.90;99.90
22491;DHT22;11412;50.802;4.350;2023-02-04T05:46:10;9.90;99.90
22491;DHT22;11412;50.802;4.350;2023-02-04T05:48:36;9.90;99.90
22491;DHT22;11412;50.802;4.350;2023-02-04T05:51:01;9.90;99.90
22491;DHT22;11412;50.802;4.350;2023-02-04T05:53:27;9.90;99.90
22491;DHT22;11412;50.802;4.350;2023-02-04T05:55:53;9.90;99.90
22491;DHT22;11412;50.802;4.350;2023-02-04T05:58:18;9.90;99.90
22491;DHT22;11412;50.802;4.350;2023-02-04T06:00:44;10.00;99.90
22491;DHT22;11412;50.802;4.350;2023-02-04T06:03:09;10.00;99.90
22491;DHT22;11412;50.802;4.350;2023-02-04T06:05:35;9.90;99.90
22491;DHT22;11412;50.802;4.350;2023-02-04T06:08:00;10.00;99.90
22491;DHT22;11412;50.802;4.350;2023-02-04T06:10:26;9.90;99.90
22491;DHT22;11412;50.802;4.350;2023-02-04T06:12:52;9.90;99.90
22491;DHT22;11412;50.802;4.350;2023-02-04T06:15:17;9.90;99.90
22491;DHT22;11412;50.802;4.350;2023-02-04T06:17:44;9.90;99.90
22491;DHT22;11412;50.802;4.350;2023-02-04T06:20:12;9.90;99.90
22491;DHT22;11412;50.802;4.350;2023-02-04T06:22:38;10.00;99.90
22491;DHT22;11412;50.802;4.350;2023-02-04T06:25:04;10.00;99.90
22491;DHT22;11412;50.802;4.350;2023-02-04T06:27:30;10.00;99.90
22491;DHT22;11412;50.802;4.350;2023-02-04T06:29:55;10.00;99.90
22491;DHT22;11412;50.802;4.350;2023-02-04T06:32:21;9.90;99.90
22491;DHT22;11412;50.802;4.350;2023-02-04T06:34:48;9.90;99.90
22491;DHT22;11412;50.802;4.350;2023-02-04T06:37:14;9.80;99.90
22491;DHT22;11412;50.802;4.350;2023-02-04T06:39:41;9.80;99.90
22491;DHT22;11412;50.802;4.350;2023-02-04T06:42:07;9.90;99.90
22491;DHT22;11412;50.802;4.350;2023-02-04T06:44:33;9.90;99.90
22491;DHT22;11412;50.802;4.350;2023-02-04T06:46:59;9.90;99.90
22491;DHT22;11412;50.802;4.350;2023-02-04T06:49:24;9.90;99.90
22491;DHT22;11412;50.802;4.350;2023-02-04T06:51:50;9.80;99.90
22491;DHT22;11412;50.802;4.350;2023-02-04T06:54:16;9.80;99.90
22491;DHT22;11412;50.802;4.350;2023-02-04T06:56:42;9.80;99.90
22491;DHT22;11412;50.802;4.350;2023-02-04T06:59:09;9.80;99.90
22491;DHT22;11412;50.802;4.350;2023-02-04T07:01:34;9.80;99.90
22491;DHT22;11412;50.802;4.350;2023-02-04T07:04:00;9.90;99.90
22491;DHT22;11412;50.802;4.350;2023-02-04T07:06:26;9.90;99.90
22491;DHT22;11412;50.802;4.350;2023-02-04T07:08:52;9.80;99.90
22491;DHT22;11412;50.802;4.350;2023-02-04T07:11:17;9.90;99.90
22491;DHT22;11412;50.802;4.350;2023-02-04T07:13:43;9.90;99.90
22491;DHT22;11412;50.802;4.350;2023-02-04T07:16:08;9.90;99.90
22491;DHT22;11412;50.802;4.350;2023-02-04T07:18:34;9.90;99.90
22491;DHT22;11412;50.802;4.350;2023-02-04T07:21:00;9.90;99.90
22491;DHT22;11412;50.802;4.350;2023-02-04T07:23:25;9.90;99.90
22491;DHT22;11412;50.802;4.350;2023-02-04T07:25:52;9.90;99.90
22491;DHT22;11412;50.802;4.350;2023-02-04T07:28:20;9.90;99.90
22491;DHT22;11412;50.802;4.350;2023-02-04T07:30:46;9.90;99.90
22491;DHT22;11412;50.802;4.350;2023-02-04T07:33:11;9.80;99.90
22491;DHT22;11412;50.802;4.350;2023-02-04T07:35:37;9.80;99.90
22491;DHT22;11412;50.802;4.350;2023-02-04T07:38:03;9.80;99.90
22491;DHT22;11412;50.802;4.350;2023-02-04T07:40:29;9.80;99.90
22491;DHT22;11412;50.802;4.350;2023-02-04T07:42:55;9.80;99.90
22491;DHT22;11412;50.802;4.350;2023-02-04T07:45:20;9.70;99.90
22491;DHT22;11412;50.802;4.350;2023-02-04T07:47:46;9.80;99.90
22491;DHT22;11412;50.802;4.350;2023-02-04T07:50:12;9.80;99.90
22491;DHT22;11412;50.802;4.350;2023-02-04T07:52:37;9.80;99.90
22491;DHT22;11412;50.802;4.350;2023-02-04T07:55:04;9.80;99.90
22491;DHT22;11412;50.802;4.350;2023-02-04T07:57:30;9.80;99.90
22491;DHT22;11412;50.802;4.350;2023-02-04T07:59:55;9.70;99.90
22491;DHT22;11412;50.802;4.350;2023-02-04T08:02:21;9.80;99.90
22491;DHT22;11412;50.802;4.350;2023-02-04T08:04:47;9.80;99.90
22491;DHT22;11412;50.802;4.350;2023-02-04T08:07:12;9.80;99.90
22491;DHT22;11412;50.802;4.350;2023-02-04T08:09:38;9.80;99.90
22491;DHT22;11412;50.802;4.350;2023-02-04T08:12:04;9.80;99.90
22491;DHT22;11412;50.802;4.350;2023-02-04T08:14:30;9.90;99.90
22491;DHT22;11412;50.802;4.350;2023-02-04T08:16:55;9.90;99.90
22491;DHT22;11412;50.802;4.350;2023-02-04T08:19:21;9.90;99.90
22491;DHT22;11412;50.802;4.350;2023-02-04T08:21:47;9.90;99.90
22491;DHT22;11412;50.802;4.350;2023-02-04T08:24:14;9.90;99.90
22491;DHT22;11412;50.802;4.350;2023-02-04T08:26:41;9.90;99.90
22491;DHT22;11412;50.802;4.350;2023-02-04T08:29:07;9.80;99.90
22491;DHT22;11412;50.802;4.350;2023-02-04T08:31:33;9.90;99.90
22491;DHT22;11412;50.802;4.350;2023-02-04T08:33:59;9.80;99.90
22491;DHT22;11412;50.802;4.350;2023-02-04T08:36:25;9.80;99.90
22491;DHT22;11412;50.802;4.350;2023-02-04T08:38:50;9.90;99.90
22491;DHT22;11412;50.802;4.350;2023-02-04T08:41:16;10.00;99.90
22491;DHT22;11412;50.802;4.350;2023-02-04T08:43:42;9.90;99.90
22491;DHT22;11412;50.802;4.350;2023-02-04T08:46:07;9.90;99.90
22491;DHT22;11412;50.802;4.350;2023-02-04T08:48:33;9.90;99.90
22491;DHT22;11412;50.802;4.350;2023-02-04T08:50:58;10.00;99.90
22491;DHT22;11412;50.802;4.350;2023-02-04T08:53:24;10.00;99.90
22491;DHT22;11412;50.802;4.350;2023-02-04T08:55:50;10.00;99.90
22491;DHT22;11412;50.802;4.350;2023-02-04T08:58:15;10.00;99.90
22491;DHT22;11412;50.802;4.350;2023-02-04T09:00:41;10.10;99.90
22491;DHT22;11412;50.802;4.350;2023-02-04T09:03:06;10.00;99.90
22491;DHT22;11412;50.802;4.350;2023-02-04T09:05:32;10.10;99.90
22491;DHT22;11412;50.802;4.350;2023-02-04T09:07:58;10.10;99.90
22491;DHT22;11412;50.802;4.350;2023-02-04T09:10:24;10.10;99.90
22491;DHT22;11412;50.802;4.350;2023-02-04T09:12:49;10.10;99.90
22491;DHT22;11412;50.802;4.350;2023-02-04T09:15:21;10.10;99.90
22491;DHT22;11412;50.802;4.350;2023-02-04T09:17:47;10.10;99.90
22491;DHT22;11412;50.802;4.350;2023-02-04T09:20:13;10.20;99.90
22491;DHT22;11412;50.802;4.350;2023-02-04T09:22:39;10.20;99.90
22491;DHT22;11412;50.802;4.350;2023-02-04T09:25:05;10.30;99.90
22491;DHT22;11412;50.802;4.350;2023-02-04T09:27:31;10.30;99.90
22491;DHT22;11412;50.802;4.350;2023-02-04T09:29:56;10.30;99.90
22491;DHT22;11412;50.802;4.350;2023-02-04T09:32:22;10.40;99.90
22491;DHT22;11412;50.802;4.350;2023-02-04T09:34:48;10.40;99.90
22491;DHT22;11412;50.802;4.350;2023-02-04T09:37:14;10.40;99.90
22491;DHT22;11412;50.802;4.350;2023-02-04T09:39:39;10.50;99.90
22491;DHT22;11412;50.802;4.350;2023-02-04T09:42:05;10.50;99.90
22491;DHT22;11412;50.802;4.350;2023-02-04T09:44:31;10.60;99.90
22491;DHT22;11412;50.802;4.350;2023-02-04T09:46:59;10.50;99.90
22491;DHT22;11412;50.802;4.350;2023-02-04T09:49:26;10.60;99.90
22491;DHT22;11412;50.802;4.350;2023-02-04T09:51:53;10.60;99.90
22491;DHT22;11412;50.802;4.350;2023-02-04T09:54:20;10.60;99.90
22491;DHT22;11412;50.802;4.350;2023-02-04T09:56:47;10.60;99.90
22491;DHT22;11412;50.802;4.350;2023-02-04T09:59:21;10.50;99.90
22491;DHT22;11412;50.802;4.350;2023-02-04T10:02:18;10.50;99.90
22491;DHT22;11412;50.802;4.350;2023-02-04T10:04:45;10.50;99.90
22491;DHT22;11412;50.802;4.350;2023-02-04T10:07:12;10.50;99.90
22491;DHT22;11412;50.802;4.350;2023-02-04T10:09:39;10.50;99.90
22491;DHT22;11412;50.802;4.350;2023-02-04T10:12:05;10.60;99.90
22491;DHT22;11412;50.802;4.350;2023-02-04T10:14:31;10.50;99.90
22491;DHT22;11412;50.802;4.350;2023-02-04T10:16:59;10.60;99.90
22491;DHT22;11412;50.802;4.350;2023-02-04T10:19:27;10.70;99.90
22491;DHT22;11412;50.802;4.350;2023-02-04T10:21:53;10.70;99.90
22491;DHT22;11412;50.802;4.350;2023-02-04T10:24:22;10.70;99.90
22491;DHT22;11412;50.802;4.350;2023-02-04T10:26:51;10.70;99.90
22491;DHT22;11412;50.802;4.350;2023-02-04T10:29:22;10.60;99.90
22491;DHT22;11412;50.802;4.350;2023-02-04T10:31:50;10.60;99.90
22491;DHT22;11412;50.802;4.350;2023-02-04T10:34:20;10.70;99.90
22491;DHT22;11412;50.802;4.350;2023-02-04T10:36:49;10.70;99.90
22491;DHT22;11412;50.802;4.350;2023-02-04T10:44:14;10.80;99.90
22491;DHT22;11412;50.802;4.350;2023-02-04T10:46:40;10.80;99.90
22491;DHT22;11412;50.802;4.350;2023-02-04T10:49:21;10.80;99.90
22491;DHT22;11412;50.802;4.350;2023-02-04T10:51:48;10.80;99.90
22491;DHT22;11412;50.802;4.350;2023-02-04T10:54:15;10.90;99.90
22491;DHT22;11412;50.802;4.350;2023-02-04T10:59:28;11.00;99.90
22491;DHT22;11412;50.802;4.350;2023-02-04T11:01:55;11.10;99.90
22491;DHT22;11412;50.802;4.350;2023-02-04T11:04:23;11.20;99.90
22491;DHT22;11412;50.802;4.350;2023-02-04T11:06:49;11.20;99.90
22491;DHT22;11412;50.802;4.350;2023-02-04T11:09:15;11.30;99.90
22491;DHT22;11412;50.802;4.350;2023-02-04T11:11:51;11.30;99.90
22491;DHT22;11412;50.802;4.350;2023-02-04T11:14:31;11.20;99.90
22491;DHT22;11412;50.802;4.350;2023-02-04T11:16:57;11.30;99.90
22491;DHT22;11412;50.802;4.350;2023-02-04T11:19:36;11.20;99.90
22491;DHT22;11412;50.802;4.350;2023-02-04T11:22:41;11.10;99.90
22491;DHT22;11412;50.802;4.350;2023-02-04T11:25:33;11.00;99.90
22491;DHT22;11412;50.802;4.350;2023-02-04T11:27:59;11.00;99.90
22491;DHT22;11412;50.802;4.350;2023-02-04T11:30:31;11.00;99.90
22491;DHT22;11412;50.802;4.350;2023-02-04T11:33:03;11.00;99.90
22491;DHT22;11412;50.802;4.350;2023-02-04T11:35:30;11.00;99.90
22491;DHT22;11412;50.802;4.350;2023-02-04T11:37:57;11.00;99.90
22491;DHT22;11412;50.802;4.350;2023-02-04T11:40:33;11.10;99.90
22491;DHT22;11412;50.802;4.350;2023-02-04T11:43:09;11.30;99.90
22491;DHT22;11412;50.802;4.350;2023-02-04T11:45:36;11.50;99.90
22491;DHT22;11412;50.802;4.350;2023-02-04T11:48:11;11.50;99.90
22491;DHT22;11412;50.802;4.350;2023-02-04T11:50:37;11.70;99.90
22491;DHT22;11412;50.802;4.350;2023-02-04T11:53:03;11.90;99.90
22491;DHT22;11412;50.802;4.350;2023-02-04T11:55:31;12.20;99.90
22491;DHT22;11412;50.802;4.350;2023-02-04T11:57:59;12.20;99.90
22491;DHT22;11412;50.802;4.350;2023-02-04T12:00:32;12.40;99.90
22491;DHT22;11412;50.802;4.350;2023-02-04T12:03:03;12.50;99.90
22491;DHT22;11412;50.802;4.350;2023-02-04T12:05:44;12.70;99.90
22491;DHT22;11412;50.802;4.350;2023-02-04T12:10:59;12.70;99.90
22491;DHT22;11412;50.802;4.350;2023-02-04T12:13:26;12.60;99.90
22491;DHT22;11412;50.802;4.350;2023-02-04T12:15:59;12.70;99.90
22491;DHT22;11412;50.802;4.350;2023-02-04T12:18:25;12.80;99.90
22491;DHT22;11412;50.802;4.350;2023-02-04T12:20:55;12.80;99.90
22491;DHT22;11412;50.802;4.350;2023-02-04T12:23:21;12.50;99.90
22491;DHT22;11412;50.802;4.350;2023-02-04T12:25:47;12.70;99.90
22491;DHT22;11412;50.802;4.350;2023-02-04T12:28:13;12.70;99.90
22491;DHT22;11412;50.802;4.350;2023-02-04T12:30:39;12.70;99.90
22491;DHT22;11412;50.802;4.350;2023-02-04T12:33:05;12.40;99.90
22491;DHT22;11412;50.802;4.350;2023-02-04T12:35:32;12.40;99.90
22491;DHT22;11412;50.802;4.350;2023-02-04T12:37:57;12.60;99.90
22491;DHT22;11412;50.802;4.350;2023-02-04T12:40:23;12.60;99.90
22491;DHT22;11412;50.802;4.350;2023-02-04T12:42:49;12.60;99.90
22491;DHT22;11412;50.802;4.350;2023-02-04T12:45:15;12.50;99.90
22491;DHT22;11412;50.802;4.350;2023-02-04T12:47:42;12.40;99.90
22491;DHT22;11412;50.802;4.350;2023-02-04T12:50:09;12.50;99.90
22491;DHT22;11412;50.802;4.350;2023-02-04T12:52:35;12.20;99.90
22491;DHT22;11412;50.802;4.350;2023-02-04T12:55:05;12.00;99.90
22491;DHT22;11412;50.802;4.350;2023-02-04T12:57:32;11.80;99.90
22491;DHT22;11412;50.802;4.350;2023-02-04T12:59:58;11.80;99.90
22491;DHT22;11412;50.802;4.350;2023-02-04T13:02:26;11.90;99.90
22491;DHT22;11412;50.802;4.350;2023-02-04T13:04:52;11.90;99.90
22491;DHT22;11412;50.802;4.350;2023-02-04T13:07:18;11.90;99.90
22491;DHT22;11412;50.802;4.350;2023-02-04T13:09:43;11.80;99.90
22491;DHT22;11412;50.802;4.350;2023-02-04T13:12:10;11.70;99.90
22491;DHT22;11412;50.802;4.350;2023-02-04T13:14:38;11.80;99.90
22491;DHT22;11412;50.802;4.350;2023-02-04T13:17:05;11.80;99.90
22491;DHT22;11412;50.802;4.350;2023-02-04T13:19:31;11.80;99.90
22491;DHT22;11412;50.802;4.350;2023-02-04T13:21:57;11.80;99.90
22491;DHT22;11412;50.802;4.350;2023-02-04T13:24:24;11.90;99.90
22491;DHT22;11412;50.802;4.350;2023-02-04T13:26:49;11.80;99.90
22491;DHT22;11412;50.802;4.350;2023-02-04T13:29:15;11.70;99.90
22491;DHT22;11412;50.802;4.350;2023-02-04T13:31:41;11.80;99.90
22491;DHT22;11412;50.802;4.350;2023-02-04T13:34:07;11.90;99.90
22491;DHT22;11412;50.802;4.350;2023-02-04T13:36:32;11.70;99.90
22491;DHT22;11412;50.802;4.350;2023-02-04T13:38:58;12.00;99.90
22491;DHT22;11412;50.802;4.350;2023-02-04T13:41:26;11.90;99.90
22491;DHT22;11412;50.802;4.350;2023-02-04T13:43:51;12.00;99.90
22491;DHT22;11412;50.802;4.350;2023-02-04T13:46:17;11.90;99.90
22491;DHT22;11412;50.802;4.350;2023-02-04T13:48:43;11.90;99.90
22491;DHT22;11412;50.802;4.350;2023-02-04T13:51:10;11.90;99.90
22491;DHT22;11412;50.802;4.350;2023-02-04T13:53:36;11.90;99.90
22491;DHT22;11412;50.802;4.350;2023-02-04T13:56:01;12.00;99.90
22491;DHT22;11412;50.802;4.350;2023-02-04T13:58:27;11.90;99.90
22491;DHT22;11412;50.802;4.350;2023-02-04T14:00:53;11.60;99.90
22491;DHT22;11412;50.802;4.350;2023-02-04T14:03:23;11.60;99.90
22491;DHT22;11412;50.802;4.350;2023-02-04T14:05:49;11.60;99.90
22491;DHT22;11412;50.802;4.350;2023-02-04T14:08:15;11.60;99.90
22491;DHT22;11412;50.802;4.350;2023-02-04T14:10:40;11.70;99.90
22491;DHT22;11412;50.802;4.350;2023-02-04T14:13:06;11.70;99.90
22491;DHT22;11412;50.802;4.350;2023-02-04T14:15:32;11.70;99.90
22491;DHT22;11412;50.802;4.350;2023-02-04T14:17:59;11.50;99.90
22491;DHT22;11412;50.802;4.350;2023-02-04T14:20:25;11.50;99.90
22491;DHT22;11412;50.802;4.350;2023-02-04T14:22:51;11.40;99.90
22491;DHT22;11412;50.802;4.350;2023-02-04T14:25:17;11.40;99.90
22491;DHT22;11412;50.802;4.350;2023-02-04T14:27:43;11.20;99.90
22491;DHT22;11412;50.802;4.350;2023-02-04T14:30:20;11.30;99.90
22491;DHT22;11412;50.802;4.350;2023-02-04T14:32:46;11.30;99.90
22491;DHT22;11412;50.802;4.350;2023-02-04T14:35:13;11.30;99.90
22491;DHT22;11412;50.802;4.350;2023-02-04T14:37:38;11.30;99.90
22491;DHT22;11412;50.802;4.350;2023-02-04T14:40:05;11.30;99.90
22491;DHT22;11412;50.802;4.350;2023-02-04T14:42:31;11.30;99.90
22491;DHT22;11412;50.802;4.350;2023-02-04T14:44:57;11.30;99.90
22491;DHT22;11412;50.802;4.350;2023-02-04T14:47:22;11.20;99.90
22491;DHT22;11412;50.802;4.350;2023-02-04T14:49:48;11.30;99.90
22491;DHT22;11412;50.802;4.350;2023-02-04T14:52:13;11.30;99.90
22491;DHT22;11412;50.802;4.350;2023-02-04T14:54:39;11.30;99.90
22491;DHT22;11412;50.802;4.350;2023-02-04T14:57:05;11.30;99.90
22491;DHT22;11412;50.802;4.350;2023-02-04T14:59:36;11.30;99.90
22491;DHT22;11412;50.802;4.350;2023-02-04T15:02:03;11.20;99.90
22491;DHT22;11412;50.802;4.350;2023-02-04T15:04:29;11.20;99.90
22491;DHT22;11412;50.802;4.350;2023-02-04T15:06:54;11.10;99.90
22491;DHT22;11412;50.802;4.350;2023-02-04T15:09:22;11.20;99.90
22491;DHT22;11412;50.802;4.350;2023-02-04T15:11:48;11.00;99.90
22491;DHT22;11412;50.802;4.350;2023-02-04T15:14:14;11.10;99.90
22491;DHT22;11412;50.802;4.350;2023-02-04T15:16:39;11.00;99.90
22491;DHT22;11412;50.802;4.350;2023-02-04T15:19:07;11.00;99.90
22491;DHT22;11412;50.802;4.350;2023-02-04T15:21:33;10.90;99.90
22491;DHT22;11412;50.802;4.350;2023-02-04T15:23:58;10.90;99.90
22491;DHT22;11412;50.802;4.350;2023-02-04T15:26:24;10.80;99.90
22491;DHT22;11412;50.802;4.350;2023-02-04T15:28:50;10.90;99.90
22491;DHT22;11412;50.802;4.350;2023-02-04T15:31:15;10.90;99.90
22491;DHT22;11412;50.802;4.350;2023-02-04T15:33:41;11.00;99.90
22491;DHT22;11412;50.802;4.350;2023-02-04T15:36:07;10.90;99.90
22491;DHT22;11412;50.802;4.350;2023-02-04T15:38:33;10.90;99.90
22491;DHT22;11412;50.802;4.350;2023-02-04T15:40:58;10.80;99.90
22491;DHT22;11412;50.802;4.350;2023-02-04T15:43:24;10.80;99.90